sensor_id;sensor_type;location;lat;lon;timestamp;pressure;altitude;pressure_sealevel;temperature;humidity
10718;BME280;13513;42.700;23.124;2022-10-03T00:01:11;92927.70;;;13.05;82.51
10718;BME280;13513;42.700;23.124;2022-10-03T00:03:55;92922.95;;;13.09;81.72
10718;BME280;13513;42.700;23.124;2022-10-03T00:06:41;92918.94;;;13.04;83.49
10718;BME280;13513;42.700;23.124;2022-10-03T00:15:35;92905.07;;;12.87;84.94
10718;BME280;13513;42.700;23.124;2022-10-03T00:23:32;92881.99;;;12.23;91.76
10718;BME280;13513;42.700;23.124;2022-10-03T00:26:00;92886.69;;;12.09;92.90
10718;BME280;13513;42.700;23.124;2022-10-03T00:29:01;92878.39;;;11.95;93.49
10718;BME280;13513;42.700;23.124;2022-10-03T00:31:52;92877.57;;;11.92;94.30
10718;BME280;13513;42.700;23.124;2022-10-03T00:46:03;92891.76;;;11.76;97.89
10718;BME280;13513;42.700;23.124;2022-10-03T00:54:37;92898.33;;;10.89;100.00
10718;BME280;13513;42.700;23.124;2022-10-03T01:00:17;92899.66;;;10.65;100.00
10718;BME280;13513;42.700;23.124;2022-10-03T01:02:59;92901.17;;;10.59;100.00
10718;BME280;13513;42.700;23.124;2022-10-03T01:11:37;92893.64;;;10.70;100.00
10718;BME280;13513;42.700;23.124;2022-10-03T01:14:07;92887.59;;;10.74;100.00
10718;BME280;13513;42.700;23.124;2022-10-03T01:19:34;92883.16;;;10.56;100.00
10718;BME280;13513;42.700;23.124;2022-10-03T01:24:54;92880.91;;;10.67;100.00
10718;BME280;13513;42.700;23.124;2022-10-03T01:27:36;92872.20;;;10.69;100.00
10718;BME280;13513;42.700;23.124;2022-10-03T01:30:00;92870.15;;;10.73;100.00
10718;BME280;13513;42.700;23.124;2022-10-03T01:32:50;92869.05;;;10.69;100.00
10718;BME280;13513;42.700;23.124;2022-10-03T01:35:28;92879.02;;;10.65;100.00
10718;BME280;13513;42.700;23.124;2022-10-03T01:38:08;92882.70;;;10.61;100.00
10718;BME280;13513;42.700;23.124;2022-10-03T01:40:43;92882.16;;;10.62;100.00
10718;BME280;13513;42.700;23.124;2022-10-03T01:57:12;92863.36;;;10.34;100.00
10718;BME280;13513;42.700;23.124;2022-10-03T02:00:00;92865.73;;;10.33;100.00
10718;BME280;13513;42.700;23.124;2022-10-03T02:03:15;92858.05;;;10.32;100.00
10718;BME280;13513;42.700;23.124;2022-10-03T02:05:16;92857.45;;;10.27;100.00
10718;BME280;13513;42.700;23.124;2022-10-03T02:07:59;92856.92;;;10.25;100.00
10718;BME280;13513;42.700;23.124;2022-10-03T02:13:21;92860.09;;;10.27;100.00
10718;BME280;13513;42.700;23.124;2022-10-03T02:26:55;92860.69;;;9.94;100.00
10718;BME280;13513;42.700;23.124;2022-10-03T02:41:21;92853.52;;;10.30;100.00
10718;BME280;13513;42.700;23.124;2022-10-03T03:04:34;92857.38;;;10.41;100.00
10718;BME280;13513;42.700;23.124;2022-10-03T03:13:29;92852.36;;;10.66;100.00
10718;BME280;13513;42.700;23.124;2022-10-03T03:15:45;92852.56;;;10.86;100.00
10718;BME280;13513;42.700;23.124;2022-10-03T03:18:18;92853.64;;;10.88;100.00
10718;BME280;13513;42.700;23.124;2022-10-03T03:21:03;92853.64;;;10.88;100.00
10718;BME280;13513;42.700;23.124;2022-10-03T03:26:44;92852.64;;;10.91;100.00
10718;BME280;13513;42.700;23.124;2022-10-03T03:29:19;92843.66;;;10.92;100.00
10718;BME280;13513;42.700;23.124;2022-10-03T03:34:38;92841.36;;;11.01;100.00
10718;BME280;13513;42.700;23.124;2022-10-03T03:40:02;92837.55;;;10.92;100.00
10718;BME280;13513;42.700;23.124;2022-10-03T03:42:57;92848.06;;;10.84;100.00
10718;BME280;13513;42.700;23.124;2022-10-03T03:53:56;92837.78;;;10.88;100.00
10718;BME280;13513;42.700;23.124;2022-10-03T03:56:47;92834.05;;;10.84;100.00
10718;BME280;13513;42.700;23.124;2022-10-03T03:59:23;92834.36;;;10.63;100.00
10718;BME280;13513;42.700;23.124;2022-10-03T04:01:57;92826.99;;;10.65;100.00
10718;BME280;13513;42.700;23.124;2022-10-03T04:10:41;92826.55;;;10.73;100.00
10718;BME280;13513;42.700;23.124;2022-10-03T04:16:39;92809.50;;;10.86;100.00
10718;BME280;13513;42.700;23.124;2022-10-03T04:19:30;92814.08;;;10.95;100.00
10718;BME280;13513;42.700;23.124;2022-10-03T04:22:17;92808.55;;;10.97;100.00
10718;BME280;13513;42.700;23.124;2022-10-03T04:50:12;92810.77;;;11.78;100.00
10718;BME280;13513;42.700;23.124;2022-10-03T04:56:10;92803.94;;;11.89;100.00
10718;BME280;13513;42.700;23.124;2022-10-03T05:04:28;92817.19;;;11.92;100.00
10718;BME280;13513;42.700;23.124;2022-10-03T05:07:18;92808.48;;;11.96;100.00
10718;BME280;13513;42.700;23.124;2022-10-03T05:09:58;92796.01;;;11.92;100.00
10718;BME280;13513;42.700;23.124;2022-10-03T05:12:37;92810.98;;;12.20;100.00
10718;BME280;13513;42.700;23.124;2022-10-03T05:23:58;92809.90;;;12.14;100.00
10718;BME280;13513;42.700;23.124;2022-10-03T05:26:33;92802.53;;;12.28;100.00
10718;BME280;13513;42.700;23.124;2022-10-03T05:29:03;92799.95;;;12.49;100.00
10718;BME280;13513;42.700;23.124;2022-10-03T05:31:55;92797.34;;;12.64;100.00
10718;BME280;13513;42.700;23.124;2022-10-03T05:40:25;92776.25;;;13.11;100.00
10718;BME280;13513;42.700;23.124;2022-10-03T05:43:00;92774.94;;;13.21;100.00
10718;BME280;13513;42.700;23.124;2022-10-03T05:45:53;92775.19;;;13.25;100.00
10718;BME280;13513;42.700;23.124;2022-10-03T06:00:22;92799.30;;;13.81;100.00
10718;BME280;13513;42.700;23.124;2022-10-03T06:05:53;92807.80;;;13.68;97.76
10718;BME280;13513;42.700;23.124;2022-10-03T06:08:27;92822.70;;;13.39;99.04
10718;BME280;13513;42.700;23.124;2022-10-03T06:22:21;92825.62;;;13.52;98.74
10718;BME280;13513;42.700;23.124;2022-10-03T06:30:31;92827.19;;;13.43;97.26
10718;BME280;13513;42.700;23.124;2022-10-03T06:33:09;92832.52;;;13.51;98.47
10718;BME280;13513;42.700;23.124;2022-10-03T06:42:02;92827.18;;;13.83;100.00
10718;BME280;13513;42.700;23.124;2022-10-03T06:47:55;92828.96;;;14.18;100.00
10718;BME280;13513;42.700;23.124;2022-10-03T06:50:50;92836.42;;;14.28;99.42
10718;BME280;13513;42.700;23.124;2022-10-03T06:53:37;92833.48;;;14.27;98.79
10718;BME280;13513;42.700;23.124;2022-10-03T06:56:20;92844.94;;;14.25;98.15
10718;BME280;13513;42.700;23.124;2022-10-03T06:59:00;92848.14;;;14.02;98.98
10718;BME280;13513;42.700;23.124;2022-10-03T07:13:14;92881.89;;;13.44;100.00
10718;BME280;13513;42.700;23.124;2022-10-03T07:26:52;92919.50;;;12.50;100.00
10718;BME280;13513;42.700;23.124;2022-10-03T07:29:22;92929.29;;;12.49;100.00
10718;BME280;13513;42.700;23.124;2022-10-03T07:41:03;92943.52;;;12.36;100.00
10718;BME280;13513;42.700;23.124;2022-10-03T07:58:18;92950.08;;;12.72;100.00
10718;BME280;13513;42.700;23.124;2022-10-03T08:06:39;92960.14;;;13.24;100.00
10718;BME280;13513;42.700;23.124;2022-10-03T08:09:31;92961.22;;;13.33;100.00
10718;BME280;13513;42.700;23.124;2022-10-03T08:12:31;92960.14;;;13.27;100.00
10718;BME280;13513;42.700;23.124;2022-10-03T08:21:00;92965.41;;;13.22;100.00
10718;BME280;13513;42.700;23.124;2022-10-03T08:26:45;92966.53;;;13.43;100.00
10718;BME280;13513;42.700;23.124;2022-10-03T08:29:42;92966.31;;;13.57;100.00
10718;BME280;13513;42.700;23.124;2022-10-03T08:34:55;92959.95;;;13.68;100.00
10718;BME280;13513;42.700;23.124;2022-10-03T08:49:28;92971.69;;;14.37;100.00
10718;BME280;13513;42.700;23.124;2022-10-03T08:52:16;92976.41;;;14.68;100.00
10718;BME280;13513;42.700;23.124;2022-10-03T09:06:50;92975.34;;;15.93;100.00
10718;BME280;13513;42.700;23.124;2022-10-03T09:09:19;92972.91;;;16.33;100.00
10718;BME280;13513;42.700;23.124;2022-10-03T09:20:27;92983.58;;;16.69;100.00
10718;BME280;13513;42.700;23.124;2022-10-03T09:26:43;92989.59;;;16.18;98.50
10718;BME280;13513;42.700;23.124;2022-10-03T09:41:09;92977.80;;;16.60;96.21
10718;BME280;13513;42.700;23.124;2022-10-03T09:43:57;92985.16;;;16.70;96.17
10718;BME280;13513;42.700;23.124;2022-10-03T10:09:02;92988.95;;;16.90;80.00
10718;BME280;13513;42.700;23.124;2022-10-03T10:11:53;92987.58;;;16.69;77.89
10718;BME280;13513;42.700;23.124;2022-10-03T10:14:51;92993.08;;;16.49;80.62
10718;BME280;13513;42.700;23.124;2022-10-03T10:22:55;92990.38;;;16.83;81.88
10718;BME280;13513;42.700;23.124;2022-10-03T10:25:30;92992.06;;;17.00;82.62
10718;BME280;13513;42.700;23.124;2022-10-03T10:39:49;92988.41;;;17.82;71.70
10718;BME280;13513;42.700;23.124;2022-10-03T10:57:16;92978.27;;;19.94;61.96
10718;BME280;13513;42.700;23.124;2022-10-03T11:03:07;92967.55;;;20.40;57.10
10718;BME280;13513;42.700;23.124;2022-10-03T11:08:43;92973.03;;;21.79;50.50
10718;BME280;13513;42.700;23.124;2022-10-03T11:17:19;92984.27;;;19.63;58.38
10718;BME280;13513;42.700;23.124;2022-10-03T11:22:44;92989.33;;;18.63;62.97
10718;BME280;13513;42.700;23.124;2022-10-03T11:28:42;92992.92;;;18.21;65.23
10718;BME280;13513;42.700;23.124;2022-10-03T11:31:32;92999.27;;;17.88;67.22
10718;BME280;13513;42.700;23.124;2022-10-03T11:42:54;92990.96;;;17.71;66.73
10718;BME280;13513;42.700;23.124;2022-10-03T11:45:47;92994.58;;;17.80;65.83
10718;BME280;13513;42.700;23.124;2022-10-03T11:48:22;92995.16;;;17.56;65.75
10718;BME280;13513;42.700;23.124;2022-10-03T11:50:53;92997.45;;;17.44;67.49
10718;BME280;13513;42.700;23.124;2022-10-03T11:53:36;92990.02;;;17.39;69.10
10718;BME280;13513;42.700;23.124;2022-10-03T11:56:14;92984.91;;;17.42;68.54
10718;BME280;13513;42.700;23.124;2022-10-03T11:59:01;92983.81;;;17.46;66.80
10718;BME280;13513;42.700;23.124;2022-10-03T12:01:43;92981.05;;;17.30;66.48
10718;BME280;13513;42.700;23.124;2022-10-03T12:04:30;92979.17;;;17.07;66.47
10718;BME280;13513;42.700;23.124;2022-10-03T12:07:04;92985.77;;;16.88;68.63
10718;BME280;13513;42.700;23.124;2022-10-03T12:10:11;92991.05;;;16.67;66.61
10718;BME280;13513;42.700;23.124;2022-10-03T12:12:52;92987.72;;;16.54;65.15
10718;BME280;13513;42.700;23.124;2022-10-03T12:15:48;92986.50;;;16.70;66.85
10718;BME280;13513;42.700;23.124;2022-10-03T12:18:27;92973.69;;;16.96;68.53
10718;BME280;13513;42.700;23.124;2022-10-03T12:21:13;92970.47;;;17.20;69.27
10718;BME280;13513;42.700;23.124;2022-10-03T12:24:01;92978.20;;;17.66;70.09
10718;BME280;13513;42.700;23.124;2022-10-03T12:26:37;92982.35;;;18.14;61.82
10718;BME280;13513;42.700;23.124;2022-10-03T12:29:07;92975.28;;;18.39;57.29
10718;BME280;13513;42.700;23.124;2022-10-03T12:31:46;92962.16;;;18.40;54.61
10718;BME280;13513;42.700;23.124;2022-10-03T12:37:33;92965.45;;;18.34;55.28
10718;BME280;13513;42.700;23.124;2022-10-03T12:40:23;92965.72;;;18.35;56.60
10718;BME280;13513;42.700;23.124;2022-10-03T12:43:05;92951.88;;;18.47;57.81
10718;BME280;13513;42.700;23.124;2022-10-03T12:45:45;92960.56;;;18.55;54.53
10718;BME280;13513;42.700;23.124;2022-10-03T12:54:06;92975.98;;;18.76;52.36
10718;BME280;13513;42.700;23.124;2022-10-03T12:56:49;92970.92;;;18.91;53.71
10718;BME280;13513;42.700;23.124;2022-10-03T13:02:21;92977.64;;;19.04;51.65
10718;BME280;13513;42.700;23.124;2022-10-03T13:08:03;92982.30;;;20.18;48.28
10718;BME280;13513;42.700;23.124;2022-10-03T13:10:51;92977.11;;;20.22;47.38
10718;BME280;13513;42.700;23.124;2022-10-03T13:13:32;92982.23;;;19.96;47.33
10718;BME280;13513;42.700;23.124;2022-10-03T13:16:22;92980.06;;;19.71;47.33
10718;BME280;13513;42.700;23.124;2022-10-03T13:24:35;92972.53;;;20.33;45.85
10718;BME280;13513;42.700;23.124;2022-10-03T13:27:25;92969.91;;;20.31;47.66
10718;BME280;13513;42.700;23.124;2022-10-03T13:30:12;92970.36;;;20.46;43.99
10718;BME280;13513;42.700;23.124;2022-10-03T13:32:38;92968.44;;;20.91;41.43
10718;BME280;13513;42.700;23.124;2022-10-03T13:41:20;92937.73;;;21.25;41.54
10718;BME280;13513;42.700;23.124;2022-10-03T13:43:47;92938.47;;;21.56;40.82
10718;BME280;13513;42.700;23.124;2022-10-03T13:46:40;92939.34;;;21.90;39.92
10718;BME280;13513;42.700;23.124;2022-10-03T13:48:59;92934.89;;;21.49;40.13
10718;BME280;13513;42.700;23.124;2022-10-03T13:51:35;92937.27;;;21.12;40.01
10718;BME280;13513;42.700;23.124;2022-10-03T13:54:09;92944.78;;;21.12;40.03
10718;BME280;13513;42.700;23.124;2022-10-03T13:56:43;92961.25;;;21.39;41.23
10718;BME280;13513;42.700;23.124;2022-10-03T13:59:41;92972.48;;;20.69;41.15
10718;BME280;13513;42.700;23.124;2022-10-03T14:08:31;92994.46;;;18.91;45.35
10718;BME280;13513;42.700;23.124;2022-10-03T14:11:21;93000.27;;;18.50;45.85
10718;BME280;13513;42.700;23.124;2022-10-03T14:14:05;93002.83;;;18.02;47.72
10718;BME280;13513;42.700;23.124;2022-10-03T14:16:35;92997.73;;;17.85;48.12
10718;BME280;13513;42.700;23.124;2022-10-03T14:22:06;92992.24;;;17.08;49.83
10718;BME280;13513;42.700;23.124;2022-10-03T14:24:47;92994.08;;;17.10;50.27
10718;BME280;13513;42.700;23.124;2022-10-03T14:30:13;92993.11;;;16.75;52.23
10718;BME280;13513;42.700;23.124;2022-10-03T14:35:40;92995.25;;;16.76;54.15
10718;BME280;13513;42.700;23.124;2022-10-03T14:38:15;92995.61;;;16.64;54.28
10718;BME280;13513;42.700;23.124;2022-10-03T14:40:51;92998.30;;;16.62;54.47
10718;BME280;13513;42.700;23.124;2022-10-03T14:46:01;93008.60;;;16.45;55.38
10718;BME280;13513;42.700;23.124;2022-10-03T14:48:40;93015.12;;;16.24;57.33
10718;BME280;13513;42.700;23.124;2022-10-03T14:51:15;93027.81;;;16.00;59.89
10718;BME280;13513;42.700;23.124;2022-10-03T14:53:54;93029.27;;;15.80;66.22
10718;BME280;13513;42.700;23.124;2022-10-03T14:56:24;93019.31;;;15.45;72.22
10718;BME280;13513;42.700;23.124;2022-10-03T14:58:56;93004.41;;;15.44;75.36
10718;BME280;13513;42.700;23.124;2022-10-03T15:01:28;93003.87;;;15.47;79.38
10718;BME280;13513;42.700;23.124;2022-10-03T15:04:14;92988.69;;;15.45;77.72
10718;BME280;13513;42.700;23.124;2022-10-03T15:06:50;93005.92;;;15.60;77.56
10718;BME280;13513;42.700;23.124;2022-10-03T15:09:29;93006.77;;;15.50;77.08
10718;BME280;13513;42.700;23.124;2022-10-03T15:12:21;93002.86;;;15.20;75.64
10718;BME280;13513;42.700;23.124;2022-10-03T15:15:05;93000.23;;;15.15;75.25
10718;BME280;13513;42.700;23.124;2022-10-03T15:17:47;93002.66;;;15.09;75.40
10718;BME280;13513;42.700;23.124;2022-10-03T15:20:09;92995.52;;;14.92;73.88
10718;BME280;13513;42.700;23.124;2022-10-03T15:22:41;92999.02;;;14.75;75.34
10718;BME280;13513;42.700;23.124;2022-10-03T15:25:14;93007.30;;;14.56;78.34
10718;BME280;13513;42.700;23.124;2022-10-03T15:27:54;93006.75;;;14.12;78.35
10718;BME280;13513;42.700;23.124;2022-10-03T15:32:55;93015.72;;;13.68;80.84
10718;BME280;13513;42.700;23.124;2022-10-03T15:35:30;93020.98;;;13.56;82.70
10718;BME280;13513;42.700;23.124;2022-10-03T15:38:47;93016.19;;;13.45;84.01
10718;BME280;13513;42.700;23.124;2022-10-03T15:43:34;93022.18;;;13.13;88.29
10718;BME280;13513;42.700;23.124;2022-10-03T15:46:11;93021.27;;;12.95;89.22
10718;BME280;13513;42.700;23.124;2022-10-03T15:48:38;93023.56;;;12.79;89.07
10718;BME280;13513;42.700;23.124;2022-10-03T15:51:16;93025.88;;;12.68;89.86
10718;BME280;13513;42.700;23.124;2022-10-03T15:53:49;93022.13;;;12.59;89.73
10718;BME280;13513;42.700;23.124;2022-10-03T15:56:32;93021.96;;;12.39;91.70
10718;BME280;13513;42.700;23.124;2022-10-03T15:59:08;93023.80;;;12.34;92.68
10718;BME280;13513;42.700;23.124;2022-10-03T16:01:39;93018.42;;;12.23;92.84
10718;BME280;13513;42.700;23.124;2022-10-03T16:04:22;93019.66;;;12.13;94.22
10718;BME280;13513;42.700;23.124;2022-10-03T16:07:09;93024.34;;;12.04;93.29
10718;BME280;13513;42.700;23.124;2022-10-03T16:10:07;93028.55;;;12.00;94.54
10718;BME280;13513;42.700;23.124;2022-10-03T16:15:24;93047.52;;;11.89;96.88
10718;BME280;13513;42.700;23.124;2022-10-03T16:18:10;93047.97;;;11.81;98.29
10718;BME280;13513;42.700;23.124;2022-10-03T16:20:42;93048.39;;;11.68;99.35
10718;BME280;13513;42.700;23.124;2022-10-03T16:23:17;93047.55;;;11.65;99.36
10718;BME280;13513;42.700;23.124;2022-10-03T16:25:49;93054.59;;;11.57;99.88
10718;BME280;13513;42.700;23.124;2022-10-03T16:28:27;93053.53;;;11.58;99.90
10718;BME280;13513;42.700;23.124;2022-10-03T16:31:10;93064.61;;;11.55;100.00
10718;BME280;13513;42.700;23.124;2022-10-03T16:33:38;93060.08;;;11.51;99.54
10718;BME280;13513;42.700;23.124;2022-10-03T16:36:09;93051.28;;;11.45;99.28
10718;BME280;13513;42.700;23.124;2022-10-03T16:38:51;93057.65;;;11.47;99.40
10718;BME280;13513;42.700;23.124;2022-10-03T16:41:38;93053.92;;;11.45;98.88
10718;BME280;13513;42.700;23.124;2022-10-03T16:44:05;93053.83;;;11.38;98.71
10718;BME280;13513;42.700;23.124;2022-10-03T16:46:37;93055.78;;;11.23;99.58
10718;BME280;13513;42.700;23.124;2022-10-03T16:49:27;93055.75;;;11.21;100.00
10718;BME280;13513;42.700;23.124;2022-10-03T16:52:09;93053.62;;;11.20;100.00
10718;BME280;13513;42.700;23.124;2022-10-03T16:54:40;93052.48;;;11.14;100.00
10718;BME280;13513;42.700;23.124;2022-10-03T16:57:18;93068.38;;;11.16;100.00
10718;BME280;13513;42.700;23.124;2022-10-03T16:59:45;93074.13;;;11.11;100.00
10718;BME280;13513;42.700;23.124;2022-10-03T17:02:18;93079.50;;;11.16;100.00
10718;BME280;13513;42.700;23.124;2022-10-03T17:04:54;93080.66;;;11.25;100.00
10718;BME280;13513;42.700;23.124;2022-10-03T17:07:29;93082.63;;;11.34;100.00
10718;BME280;13513;42.700;23.124;2022-10-03T17:09:59;93087.24;;;11.44;100.00
10718;BME280;13513;42.700;23.124;2022-10-03T17:12:42;93091.06;;;11.55;100.00
10718;BME280;13513;42.700;23.124;2022-10-03T17:15:21;93094.41;;;11.67;99.64
10718;BME280;13513;42.700;23.124;2022-10-03T17:18:09;93100.31;;;11.74;98.61
10718;BME280;13513;42.700;23.124;2022-10-03T17:20:41;93103.03;;;11.79;96.83
10718;BME280;13513;42.700;23.124;2022-10-03T17:26:04;93105.23;;;11.66;97.75
10718;BME280;13513;42.700;23.124;2022-10-03T17:31:21;93107.96;;;11.71;96.56
10718;BME280;13513;42.700;23.124;2022-10-03T17:33:52;93107.96;;;11.71;96.42
10718;BME280;13513;42.700;23.124;2022-10-03T17:39:03;93101.38;;;11.54;97.65
10718;BME280;13513;42.700;23.124;2022-10-03T17:41:52;93109.03;;;11.51;97.25
10718;BME280;13513;42.700;23.124;2022-10-03T17:44:35;93112.65;;;11.45;98.17
10718;BME280;13513;42.700;23.124;2022-10-03T17:48:03;93123.28;;;11.28;98.55
10718;BME280;13513;42.700;23.124;2022-10-03T17:50:34;93113.82;;;11.13;99.14
10718;BME280;13513;42.700;23.124;2022-10-03T17:52:45;93117.97;;;11.07;99.51
10718;BME280;13513;42.700;23.124;2022-10-03T17:55:21;93130.11;;;11.05;100.00
10718;BME280;13513;42.700;23.124;2022-10-03T17:57:52;93133.98;;;11.17;100.00
10718;BME280;13513;42.700;23.124;2022-10-03T18:00:28;93131.16;;;11.23;100.00
10718;BME280;13513;42.700;23.124;2022-10-03T18:05:46;93114.91;;;11.36;98.38
10718;BME280;13513;42.700;23.124;2022-10-03T18:08:31;93121.64;;;11.44;98.68
10718;BME280;13513;42.700;23.124;2022-10-03T18:11:06;93119.88;;;11.52;98.58
10718;BME280;13513;42.700;23.124;2022-10-03T18:13:43;93118.85;;;11.55;95.67
10718;BME280;13513;42.700;23.124;2022-10-03T18:16:33;93120.74;;;11.57;96.36
10718;BME280;13513;42.700;23.124;2022-10-03T18:19:29;93115.94;;;11.54;95.44
10718;BME280;13513;42.700;23.124;2022-10-03T18:22:07;93125.47;;;11.55;96.11
10718;BME280;13513;42.700;23.124;2022-10-03T18:30:22;93131.89;;;11.40;95.51
10718;BME280;13513;42.700;23.124;2022-10-03T18:32:48;93132.95;;;11.39;95.08
10718;BME280;13513;42.700;23.124;2022-10-03T18:35:30;93138.23;;;11.39;94.92
10718;BME280;13513;42.700;23.124;2022-10-03T18:40:47;93131.66;;;11.42;93.96
10718;BME280;13513;42.700;23.124;2022-10-03T18:43:36;93141.30;;;11.50;93.18
10718;BME280;13513;42.700;23.124;2022-10-03T18:46:15;93138.65;;;11.50;93.84
10718;BME280;13513;42.700;23.124;2022-10-03T18:49:13;93140.86;;;11.58;92.09
10718;BME280;13513;42.700;23.124;2022-10-03T18:52:30;93147.69;;;11.54;91.93
10718;BME280;13513;42.700;23.124;2022-10-03T18:57:24;93141.23;;;11.64;91.71
10718;BME280;13513;42.700;23.124;2022-10-03T19:02:41;93150.61;;;11.55;91.55
10718;BME280;13513;42.700;23.124;2022-10-03T19:05:15;93146.88;;;11.54;92.02
10718;BME280;13513;42.700;23.124;2022-10-03T19:07:30;93150.31;;;11.52;90.90
10718;BME280;13513;42.700;23.124;2022-10-03T19:12:38;93150.59;;;11.34;92.96
10718;BME280;13513;42.700;23.124;2022-10-03T19:15:41;93147.92;;;11.31;92.50
10718;BME280;13513;42.700;23.124;2022-10-03T19:18:07;93153.40;;;11.25;93.99
10718;BME280;13513;42.700;23.124;2022-10-03T19:20:40;93156.25;;;11.21;94.34
10718;BME280;13513;42.700;23.124;2022-10-03T19:23:12;93153.58;;;11.18;94.23
10718;BME280;13513;42.700;23.124;2022-10-03T19:25:47;93159.38;;;11.18;93.70
10718;BME280;13513;42.700;23.124;2022-10-03T19:28:31;93154.30;;;11.14;94.23
10718;BME280;13513;42.700;23.124;2022-10-03T19:31:29;93151.59;;;11.09;94.04
10718;BME280;13513;42.700;23.124;2022-10-03T19:34:04;93152.45;;;10.95;94.34
10718;BME280;13513;42.700;23.124;2022-10-03T19:36:33;93152.44;;;10.76;95.31
10718;BME280;13513;42.700;23.124;2022-10-03T19:39:03;93156.67;;;10.61;96.31
10718;BME280;13513;42.700;23.124;2022-10-03T19:41:45;93156.22;;;10.50;97.08
10718;BME280;13513;42.700;23.124;2022-10-03T19:44:18;93163.27;;;10.44;97.20
10718;BME280;13513;42.700;23.124;2022-10-03T19:47:02;93156.03;;;10.37;97.92
10718;BME280;13513;42.700;23.124;2022-10-03T19:55:16;93158.42;;;10.08;100.00
10718;BME280;13513;42.700;23.124;2022-10-03T19:57:52;93156.16;;;10.14;99.31
10718;BME280;13513;42.700;23.124;2022-10-03T20:00:24;93147.47;;;10.02;100.00
10718;BME280;13513;42.700;23.124;2022-10-03T20:05:49;93161.02;;;9.94;100.00
10718;BME280;13513;42.700;23.124;2022-10-03T20:08:25;93161.71;;;9.87;100.00
10718;BME280;13513;42.700;23.124;2022-10-03T20:11:12;93170.05;;;9.82;100.00
10718;BME280;13513;42.700;23.124;2022-10-03T20:13:44;93174.05;;;9.84;100.00
10718;BME280;13513;42.700;23.124;2022-10-03T20:16:21;93163.53;;;9.87;100.00
10718;BME280;13513;42.700;23.124;2022-10-03T20:18:52;93155.30;;;9.83;100.00
10718;BME280;13513;42.700;23.124;2022-10-03T20:21:26;93164.77;;;9.82;100.00
10718;BME280;13513;42.700;23.124;2022-10-03T20:23:59;93170.01;;;9.79;100.00
10718;BME280;13513;42.700;23.124;2022-10-03T20:29:31;93175.08;;;9.69;100.00
10718;BME280;13513;42.700;23.124;2022-10-03T20:32:03;93176.67;;;9.70;100.00
10718;BME280;13513;42.700;23.124;2022-10-03T20:34:36;93166.26;;;9.64;100.00
10718;BME280;13513;42.700;23.124;2022-10-03T20:39:56;93180.03;;;9.66;100.00
10718;BME280;13513;42.700;23.124;2022-10-03T20:42:26;93175.05;;;9.55;100.00
10718;BME280;13513;42.700;23.124;2022-10-03T20:45:18;93172.41;;;9.55;100.00
10718;BME280;13513;42.700;23.124;2022-10-03T20:47:50;93167.31;;;9.51;100.00
10718;BME280;13513;42.700;23.124;2022-10-03T20:50:33;93164.64;;;9.49;100.00
10718;BME280;13513;42.700;23.124;2022-10-03T20:53:03;93166.27;;;9.38;100.00
10718;BME280;13513;42.700;23.124;2022-10-03T20:55:37;93170.41;;;9.48;100.00
10718;BME280;13513;42.700;23.124;2022-10-03T20:58:15;93167.31;;;9.51;100.00
10718;BME280;13513;42.700;23.124;2022-10-03T21:00:55;93168.95;;;9.52;100.00
10718;BME280;13513;42.700;23.124;2022-10-03T21:06:24;93177.31;;;9.49;100.00
10718;BME280;13513;42.700;23.124;2022-10-03T21:08:54;93171.45;;;9.47;100.00
10718;BME280;13513;42.700;23.124;2022-10-03T21:11:27;93180.09;;;9.43;100.00
10718;BME280;13513;42.700;23.124;2022-10-03T21:14:20;93173.72;;;9.41;100.00
10718;BME280;13513;42.700;23.124;2022-10-03T21:16:52;93179.69;;;9.37;100.00
10718;BME280;13513;42.700;23.124;2022-10-03T21:19:40;93172.46;;;9.32;100.00
10718;BME280;13513;42.700;23.124;2022-10-03T21:22:02;93168.36;;;9.25;100.00
10718;BME280;13513;42.700;23.124;2022-10-03T21:27:18;93183.95;;;9.26;100.00
10718;BME280;13513;42.700;23.124;2022-10-03T21:30:15;93178.55;;;9.21;100.00
10718;BME280;13513;42.700;23.124;2022-10-03T21:35:31;93191.58;;;9.25;100.00
10718;BME280;13513;42.700;23.124;2022-10-03T21:41:17;93193.28;;;9.31;100.00
10718;BME280;13513;42.700;23.124;2022-10-03T21:43:57;93195.18;;;9.22;100.00
10718;BME280;13513;42.700;23.124;2022-10-03T21:46:43;93189.17;;;9.24;100.00
10718;BME280;13513;42.700;23.124;2022-10-03T21:52:19;93185.59;;;9.30;100.00
10718;BME280;13513;42.700;23.124;2022-10-03T21:55:15;93184.91;;;9.34;100.00
10718;BME280;13513;42.700;23.124;2022-10-03T21:57:57;93174.45;;;9.25;100.00
10718;BME280;13513;42.700;23.124;2022-10-03T22:00:43;93177.00;;;9.23;100.00
10718;BME280;13513;42.700;23.124;2022-10-03T22:03:28;93172.87;;;9.27;100.00
10718;BME280;13513;42.700;23.124;2022-10-03T22:06:09;93174.59;;;9.33;100.00
10718;BME280;13513;42.700;23.124;2022-10-03T22:08:36;93169.45;;;9.26;100.00
10718;BME280;13513;42.700;23.124;2022-10-03T22:11:28;93174.91;;;9.22;100.00
10718;BME280;13513;42.700;23.124;2022-10-03T22:16:47;93170.49;;;9.25;100.00
10718;BME280;13513;42.700;23.124;2022-10-03T22:19:36;93172.82;;;9.24;100.00
10718;BME280;13513;42.700;23.124;2022-10-03T22:22:25;93166.59;;;9.16;100.00
10718;BME280;13513;42.700;23.124;2022-10-03T22:25:11;93164.91;;;9.24;100.00
10718;BME280;13513;42.700;23.124;2022-10-03T22:30:26;93164.31;;;9.20;100.00
10718;BME280;13513;42.700;23.124;2022-10-03T22:35:51;93168.00;;;9.33;100.00
10718;BME280;13513;42.700;23.124;2022-10-03T22:38:23;93163.77;;;9.32;100.00
10718;BME280;13513;42.700;23.124;2022-10-03T22:40:55;93166.91;;;9.31;100.00
10718;BME280;13513;42.700;23.124;2022-10-03T23:00:53;93135.78;;;9.31;100.00